Time;durP1;ratioP1;P1;durP2;ratioP2;P2;SDS_P1;SDS_P2;PMS_P1;PMS_P2;Temp;Humidity;BMP_temperature;BMP_pressure;BME280_temperature;BME280_humidity;BME280_pressure;Samples;Min_cycle;Max_cycle;Signal;HPM_P1;HPM_P2
2021/01/22 00:02:16;;;;;;;2.33;0.97;;;;;;;3.79;83.48;98262.22;4994557;28;20038;-69
2021/01/22 00:04:44;;;;;;;1.98;0.90;;;;;;;3.68;83.95;98245.03;5010776;28;20037;-70
2021/01/22 00:07:09;;;;;;;7.53;1.65;;;;;;;3.59;84.66;98249.56;5011325;28;20095;-70
2021/01/22 00:09:34;;;;;;;2.87;1.30;;;;;;;3.55;85.14;98240.34;4994301;28;20049;-69
2021/01/22 00:12:00;;;;;;;3.77;1.10;;;;;;;3.54;85.70;98236.09;4994426;28;20510;-70
2021/01/22 00:14:25;;;;;;;6.87;1.27;;;;;;;3.53;85.81;98223.06;4994337;28;20053;-70
2021/01/22 00:16:50;;;;;;;8.57;1.30;;;;;;;3.44;86.23;98210.94;4994112;28;20045;-70
2021/01/22 00:19:16;;;;;;;3.90;0.87;;;;;;;3.44;86.92;98197.75;5010633;28;20065;-70
2021/01/22 00:21:41;;;;;;;4.93;1.70;;;;;;;3.35;87.32;98194.41;5010573;28;20081;-69
2021/01/22 00:24:07;;;;;;;6.60;1.50;;;;;;;3.33;87.84;98175.28;5010594;28;20037;-69
2021/01/22 00:26:32;;;;;;;7.78;2.30;;;;;;;3.35;88.10;98174.13;5010259;28;20034;-69
2021/01/22 00:28:57;;;;;;;12.57;3.53;;;;;;;3.26;88.48;98162.00;4996871;28;20053;-68
2021/01/22 00:31:23;;;;;;;6.77;2.00;;;;;;;3.33;88.79;98148.91;5017080;28;20041;-68
2021/01/22 00:33:49;;;;;;;6.40;1.70;;;;;;;3.29;88.99;98137.91;5017170;28;20048;-68
2021/01/22 00:36:14;;;;;;;7.43;3.17;;;;;;;3.26;89.56;98122.44;5016478;28;20034;-67
2021/01/22 00:38:39;;;;;;;11.67;2.77;;;;;;;3.27;89.73;98105.59;5018049;28;20419;-67
2021/01/22 00:41:05;;;;;;;6.73;1.80;;;;;;;3.30;89.76;98093.88;5016956;28;20064;-67
2021/01/22 00:43:30;;;;;;;6.83;2.43;;;;;;;3.28;90.25;98091.44;5000581;28;20101;-67
2021/01/22 00:45:55;;;;;;;6.67;1.80;;;;;;;3.28;90.32;98080.09;5017724;28;20038;-68
2021/01/22 00:48:21;;;;;;;4.63;2.00;;;;;;;3.29;90.46;98066.69;5016964;28;20041;-68
2021/01/22 00:50:46;;;;;;;3.27;1.73;;;;;;;3.28;90.63;98057.16;5016824;28;20044;-68
2021/01/22 00:53:12;;;;;;;6.43;2.33;;;;;;;3.28;90.73;98040.53;5016815;28;20028;-68
2021/01/22 00:55:37;;;;;;;5.78;2.47;;;;;;;3.30;90.88;98041.97;5016715;28;20420;-68
2021/01/22 00:58:23;;;;;;;6.88;2.65;;;;;;;3.33;90.94;98038.16;5020511;28;20041;-68
2021/01/22 01:00:58;;;;;;;3.97;2.40;;;;;;;3.33;91.17;98015.22;5016851;28;20045;-68
2021/01/22 01:03:29;;;;;;;5.40;2.75;;;;;;;3.36;91.06;98004.31;5016642;28;20048;-68
2021/01/22 01:05:56;;;;;;;4.90;2.45;;;;;;;3.40;91.10;98019.78;5000304;28;20463;-68
2021/01/22 01:08:21;;;;;;;5.53;2.50;;;;;;;3.39;91.30;97997.84;5016527;28;20052;-69
2021/01/22 01:11:01;;;;;;;4.95;2.47;;;;;;;3.45;91.04;97991.03;5016692;28;20030;-68
2021/01/22 01:13:59;;;;;;;5.53;2.53;;;;;;;3.50;91.16;97984.19;5021295;28;20038;-68
2021/01/22 01:16:25;;;;;;;8.82;3.00;;;;;;;3.51;91.26;97969.19;5017336;28;20375;-68
2021/01/22 01:18:50;;;;;;;10.67;3.87;;;;;;;3.51;91.27;97970.00;5017610;28;20041;-68
2021/01/22 01:21:16;;;;;;;7.80;3.50;;;;;;;3.58;91.36;97975.34;5017523;28;20040;-68
2021/01/22 01:23:41;;;;;;;12.40;2.70;;;;;;;3.62;91.21;97978.44;5017541;28;20490;-68
2021/01/22 01:26:06;;;;;;;5.73;3.10;;;;;;;3.62;91.48;97960.78;5017191;28;20030;-68
2021/01/22 01:28:32;;;;;;;4.00;3.00;;;;;;;3.67;91.35;97958.41;5016499;28;20041;-68
2021/01/22 01:30:57;;;;;;;4.27;2.70;;;;;;;3.69;91.33;97955.59;5017507;28;20060;-68
2021/01/22 01:33:22;;;;;;;8.23;3.53;;;;;;;3.72;91.56;97929.66;5016534;28;20045;-68
2021/01/22 01:35:51;;;;;;;4.70;2.57;;;;;;;3.78;91.79;97944.72;5016372;28;20379;-68
2021/01/22 01:38:18;;;;;;;4.72;2.67;;;;;;;3.89;91.70;97934.69;5016375;28;20048;-68
2021/01/22 01:40:44;;;;;;;3.88;2.33;;;;;;;4.06;91.61;97912.28;4997069;28;20038;-68
2021/01/22 01:43:09;;;;;;;5.90;2.20;;;;;;;4.18;91.46;97912.59;5013224;28;20075;-68
2021/01/22 01:45:39;;;;;;;4.83;2.23;;;;;;;4.28;91.13;97899.06;5014157;28;20041;-68
2021/01/22 01:48:07;;;;;;;6.68;3.53;;;;;;;4.39;91.02;97901.19;5014134;28;20048;-68
2021/01/22 01:50:32;;;;;;;4.82;2.67;;;;;;;4.43;90.84;97889.22;4996865;28;20048;-68
2021/01/22 01:52:59;;;;;;;4.13;2.43;;;;;;;4.49;91.03;97880.50;5013275;28;20049;-68
2021/01/22 01:55:25;;;;;;;7.78;2.88;;;;;;;4.57;90.79;97879.56;5012927;28;20044;-68
2021/01/22 01:57:50;;;;;;;3.70;2.90;;;;;;;4.62;90.77;97871.88;5012785;28;20038;-69
2021/01/22 02:00:16;;;;;;;4.40;2.75;;;;;;;4.64;90.64;97865.38;5012943;28;20033;-69
2021/01/22 02:02:42;;;;;;;4.50;2.60;;;;;;;4.65;90.79;97858.25;5012911;28;20068;-68
2021/01/22 02:05:07;;;;;;;3.63;2.60;;;;;;;4.71;90.78;97860.13;5012745;28;20129;-69
2021/01/22 02:07:33;;;;;;;4.18;2.17;;;;;;;4.73;90.66;97855.47;5013472;28;20044;-69
2021/01/22 02:09:58;;;;;;;4.00;3.13;;;;;;;4.76;90.62;97862.19;5013588;28;20042;-69
2021/01/22 02:12:23;;;;;;;4.30;2.40;;;;;;;4.74;90.76;97843.06;4996459;28;20037;-68
2021/01/22 02:14:50;;;;;;;4.27;2.47;;;;;;;4.75;91.13;97840.22;5012793;28;20080;-69
2021/01/22 02:17:15;;;;;;;;;;;;;;;4.79;90.95;97835.34;5013757;28;20124;-69
2021/01/22 02:19:59;;;;;;;;;;;;;;;4.85;90.84;97839.88;5013039;28;20058;-69
2021/01/22 02:22:24;;;;;;;5.90;2.40;;;;;;;4.81;91.07;97817.47;5012628;28;20373;-68
2021/01/22 02:24:52;;;;;;;4.73;3.20;;;;;;;4.89;91.16;97832.34;5013519;28;20045;-69
2021/01/22 02:27:19;;;;;;;6.40;2.88;;;;;;;4.90;91.04;97823.41;5012243;28;20367;-69
2021/01/22 02:29:45;;;;;;;6.55;2.70;;;;;;;4.91;91.09;97825.84;5012444;28;20904;-69
2021/01/22 02:32:12;;;;;;;3.78;2.60;;;;;;;5.01;90.99;97818.38;5013337;28;20116;-69
2021/01/22 02:34:40;;;;;;;5.25;2.42;;;;;;;5.03;90.89;97816.34;5013352;28;20514;-69
2021/01/22 02:37:08;;;;;;;5.97;2.40;;;;;;;5.12;90.96;97813.50;5011930;28;20460;-69
2021/01/22 02:39:39;;;;;;;4.47;2.55;;;;;;;5.18;90.95;97794.22;4995949;28;20050;-69
2021/01/22 02:42:08;;;;;;;4.55;2.47;;;;;;;5.19;90.59;97801.13;5013182;28;20494;-69
2021/01/22 02:44:35;;;;;;;3.75;2.03;;;;;;;5.24;90.40;97798.69;5012074;28;20036;-69
2021/01/22 02:47:04;;;;;;;6.82;3.15;;;;;;;5.28;90.49;97791.97;5011975;28;20033;-69
2021/01/22 02:49:30;;;;;;;2.38;1.73;;;;;;;5.36;90.09;97773.28;4995622;28;20034;-69
2021/01/22 02:51:57;;;;;;;4.53;2.53;;;;;;;5.44;89.83;97778.38;5012752;28;20533;-69
2021/01/22 02:54:23;;;;;;;8.35;2.03;;;;;;;5.55;89.88;97773.47;5012908;28;20033;-69
2021/01/22 02:56:55;;;;;;;2.88;1.90;;;;;;;5.57;89.82;97760.88;5012670;28;20411;-69
2021/01/22 02:59:31;;;;;;;3.05;1.90;;;;;;;5.56;89.89;97761.91;5012881;28;20080;-69
2021/01/22 03:02:01;;;;;;;;;;;;;;;5.54;90.13;97774.50;5012309;28;20056;-69
2021/01/22 03:04:27;;;;;;;5.28;1.52;;;;;;;5.55;90.10;97770.84;5012648;28;19913;-69
2021/01/22 03:06:55;;;;;;;3.28;1.65;;;;;;;5.59;90.40;97766.78;5011482;28;20470;-70
2021/01/22 03:09:24;;;;;;;3.90;1.77;;;;;;;5.60;90.10;97765.78;5011645;28;20038;-69
2021/01/22 03:11:54;;;;;;;3.03;1.80;;;;;;;5.67;90.34;97771.88;5011678;28;20722;-70
2021/01/22 03:14:19;;;;;;;5.00;1.75;;;;;;;5.72;90.29;97762.28;5012504;28;20033;-70
2021/01/22 03:16:49;;;;;;;2.60;1.55;;;;;;;5.77;90.26;97747.63;5012125;28;20440;-70
2021/01/22 03:19:15;;;;;;;3.40;1.67;;;;;;;5.75;90.40;97739.09;5012455;28;20069;-69
2021/01/22 03:21:40;;;;;;;2.03;1.73;;;;;;;5.76;90.51;97730.94;4995209;28;20403;-70
2021/01/22 03:24:06;;;;;;;4.70;2.30;;;;;;;5.74;90.38;97734.81;5011590;28;20456;-74
2021/01/22 03:26:31;;;;;;;1.98;1.40;;;;;;;5.86;90.32;97746.41;5011227;28;20472;-74
2021/01/22 03:28:57;;;;;;;2.03;1.60;;;;;;;5.83;90.16;97737.06;5011483;28;20052;-74
2021/01/22 03:31:22;;;;;;;2.87;1.57;;;;;;;5.88;90.05;97717.91;5011569;28;20034;-74
2021/01/22 03:33:48;;;;;;;4.77;2.03;;;;;;;5.86;90.12;97723.38;5012179;28;20113;-74
2021/01/22 03:36:14;;;;;;;3.67;1.40;;;;;;;5.86;90.35;97718.09;4994678;28;20036;-75
2021/01/22 03:38:39;;;;;;;5.82;2.00;;;;;;;5.88;90.85;97715.25;5011157;28;20052;-74
2021/01/22 03:41:05;;;;;;;3.73;1.50;;;;;;;6.03;90.31;97709.75;5011313;28;20121;-74
2021/01/22 03:43:30;;;;;;;5.37;2.20;;;;;;;6.03;90.38;97689.38;5011046;28;20112;-74
2021/01/22 03:45:55;;;;;;;3.80;2.17;;;;;;;6.08;90.44;97678.16;5011712;28;20034;-74
2021/01/22 03:48:21;;;;;;;4.80;2.23;;;;;;;6.02;90.65;97676.34;5011094;28;20037;-74
2021/01/22 03:50:46;;;;;;;3.07;1.70;;;;;;;5.98;90.99;97685.72;5011088;28;20529;-74
2021/01/22 03:53:11;;;;;;;6.30;1.83;;;;;;;5.92;91.01;97682.84;5011129;28;20392;-75
2021/01/22 03:55:37;;;;;;;3.67;1.83;;;;;;;5.92;91.02;97682.84;5010830;28;20498;-74
2021/01/22 03:58:03;;;;;;;3.07;1.60;;;;;;;5.98;91.24;97680.44;4994515;28;20460;-74
2021/01/22 04:00:29;;;;;;;2.17;1.30;;;;;;;6.04;90.78;97668.97;4994363;28;20087;-74
2021/01/22 04:02:54;;;;;;;1.58;1.10;;;;;;;6.20;90.18;97665.88;5010496;28;20041;-74
2021/01/22 04:05:19;;;;;;;4.83;1.57;;;;;;;6.17;90.11;97661.00;5011453;28;20064;-74
2021/01/22 04:07:44;;;;;;;1.97;1.17;;;;;;;6.24;90.53;97667.09;5011547;28;20049;-75
2021/01/22 04:10:10;;;;;;;2.57;1.40;;;;;;;6.33;90.42;97634.03;5010857;28;20037;-74
2021/01/22 04:12:36;;;;;;;1.40;1.15;;;;;;;6.30;90.57;97641.59;5010663;28;20041;-74
2021/01/22 04:15:03;;;;;;;1.60;1.13;;;;;;;6.29;90.61;97651.38;5011533;28;20052;-74
2021/01/22 04:17:29;;;;;;;1.48;1.10;;;;;;;6.29;90.56;97642.63;4994032;28;20100;-74
2021/01/22 04:19:54;;;;;;;1.57;1.20;;;;;;;6.33;90.32;97636.69;5011567;28;20455;-74
2021/01/22 04:22:19;;;;;;;1.90;1.30;;;;;;;6.39;89.98;97628.91;5011659;28;20369;-74
2021/01/22 04:24:45;;;;;;;1.93;1.30;;;;;;;6.48;89.38;97635.59;5011495;28;20514;-74
2021/01/22 04:27:10;;;;;;;2.13;1.73;;;;;;;6.51;89.05;97628.03;5011310;28;20095;-74
2021/01/22 04:29:37;;;;;;;2.57;1.43;;;;;;;6.51;89.08;97614.78;5011377;28;20128;-74
2021/01/22 04:32:02;;;;;;;1.80;1.30;;;;;;;6.46;89.32;97613.78;5010536;28;20065;-74
2021/01/22 04:34:27;;;;;;;1.50;1.13;;;;;;;6.53;89.25;97633.09;5011616;28;20065;-74
2021/01/22 04:36:53;;;;;;;7.13;1.30;;;;;;;6.56;89.11;97622.09;5010284;28;20045;-74
2021/01/22 04:39:18;;;;;;;1.77;1.20;;;;;;;6.53;89.55;97619.84;5010619;28;20045;-74
2021/01/22 04:41:44;;;;;;;1.48;1.25;;;;;;;6.49;90.23;97613.38;5010333;28;20033;-74
2021/01/22 04:44:10;;;;;;;1.60;0.95;;;;;;;6.44;90.50;97605.22;5010303;28;20046;-74
2021/01/22 04:46:36;;;;;;;2.33;1.07;;;;;;;6.46;90.64;97616.44;5011062;28;20121;-74
2021/01/22 04:49:03;;;;;;;;;;;;;;;6.38;91.04;97622.00;5011703;28;20038;-74
2021/01/22 04:51:36;;;;;;;4.22;1.60;;;;;;;6.37;91.38;97644.19;5011250;28;20313;-74
2021/01/22 04:54:09;;;;;;;2.63;1.70;;;;;;;6.31;91.43;97667.06;5010507;28;20042;-74
2021/01/22 04:56:43;;;;;;;7.45;2.00;;;;;;;6.15;91.66;97668.34;5010838;28;20349;-74
2021/01/22 04:59:15;;;;;;;4.80;1.75;;;;;;;6.13;91.70;97678.31;5010343;28;20041;-72
2021/01/22 05:01:41;;;;;;;0.88;0.57;;;;;;;5.73;89.42;97699.56;5010236;28;20034;-74
2021/01/22 05:04:07;;;;;;;0.38;0.30;;;;;;;5.19;87.50;97708.53;4993991;28;20034;-74
2021/01/22 05:06:33;;;;;;;0.17;0.17;;;;;;;4.63;86.70;97715.75;5010141;28;20045;-74
2021/01/22 05:08:58;;;;;;;0.20;0.20;;;;;;;4.46;87.38;97722.41;5010152;28;20064;-74
2021/01/22 05:11:23;;;;;;;0.63;0.37;;;;;;;4.33;87.98;97746.09;5010029;28;20038;-74
2021/01/22 05:13:49;;;;;;;1.43;0.60;;;;;;;4.10;88.88;97767.53;5010114;28;20403;-74
2021/01/22 05:16:15;;;;;;;0.30;0.20;;;;;;;3.91;88.71;97795.41;5013853;28;20375;-75
2021/01/22 05:18:41;;;;;;;1.00;0.30;;;;;;;3.64;88.15;97820.78;5014773;28;20045;-74
2021/01/22 05:21:12;;;;;;;1.85;0.45;;;;;;;3.42;88.74;97854.22;4997416;28;20041;-74
2021/01/22 05:23:41;;;;;;;1.35;0.95;;;;;;;3.26;88.87;97863.22;5014561;28;20048;-74
2021/01/22 05:26:11;;;;;;;0.65;0.30;;;;;;;3.09;88.95;97860.81;5014390;28;20103;-74
2021/01/22 05:28:45;;;;;;;0.70;0.30;;;;;;;2.79;89.03;97877.66;5014570;28;20034;-74
2021/01/22 05:31:12;;;;;;;0.40;0.40;;;;;;;2.54;88.36;97884.00;5013734;28;20049;-75
2021/01/22 05:33:39;;;;;;;0.20;0.20;;;;;;;2.44;88.21;97898.44;5013646;28;20514;-74
2021/01/22 05:36:32;;;;;;;0.73;0.20;;;;;;;2.44;88.54;97925.59;5014101;28;20066;-74
2021/01/22 05:39:00;;;;;;;1.55;0.30;;;;;;;2.38;88.91;97946.56;4997235;28;20044;-75
2021/01/22 05:41:26;;;;;;;0.20;0.20;;;;;;;2.27;89.54;97961.78;4997047;28;20471;-75
2021/01/22 05:43:51;;;;;;;0.57;0.20;;;;;;;2.19;89.23;97968.94;4996989;28;20076;-75
2021/01/22 05:46:21;;;;;;;0.75;0.30;;;;;;;2.09;89.54;97969.97;5013122;28;20038;-75
2021/01/22 05:48:46;;;;;;;0.70;0.30;;;;;;;2.04;89.53;97977.59;5013206;28;20084;-74
2021/01/22 05:51:13;;;;;;;0.17;0.17;;;;;;;1.99;89.60;98002.78;5014182;28;20069;-74
2021/01/22 05:53:47;;;;;;;1.67;0.90;;;;;;;1.96;89.48;98006.59;5013227;28;20034;-75
2021/01/22 05:56:17;;;;;;;0.35;0.30;;;;;;;1.79;89.43;98020.84;5012943;28;20428;-75
2021/01/22 05:58:47;;;;;;;0.47;0.40;;;;;;;1.83;90.01;98036.09;5024983;28;20174;-74
2021/01/22 06:01:18;;;;;;;0.93;0.50;;;;;;;1.81;90.27;98039.91;5033807;28;20033;-74
2021/01/22 06:03:45;;;;;;;2.03;0.90;;;;;;;1.79;90.19;98040.06;5032778;28;20104;-75
2021/01/22 06:06:11;;;;;;;1.75;1.50;;;;;;;1.79;90.28;98040.06;5033448;28;20037;-75
2021/01/22 06:08:57;;;;;;;1.88;1.60;;;;;;;1.74;90.23;98052.94;5032591;28;20048;-74
2021/01/22 06:11:27;;;;;;;2.28;1.70;;;;;;;1.71;90.43;98049.81;5033544;28;20101;-74
2021/01/22 06:13:54;;;;;;;3.67;1.70;;;;;;;1.74;90.58;98054.75;5032307;28;20037;-75
2021/01/22 06:16:27;;;;;;;2.53;1.90;;;;;;;1.76;90.52;98066.72;5033068;28;20049;-68
2021/01/22 06:18:57;;;;;;;6.43;2.38;;;;;;;1.74;90.41;98073.16;5016342;28;20048;-68
2021/01/22 06:21:58;;;;;;;9.85;2.90;;;;;;;1.74;90.70;98087.13;5033408;28;20872;-68
2021/01/22 06:24:25;;;;;;;7.10;3.03;;;;;;;1.71;90.75;98105.88;5015631;28;20535;-68
2021/01/22 06:26:51;;;;;;;3.63;2.50;;;;;;;1.74;90.98;98105.53;5032232;28;20092;-68
2021/01/22 06:29:18;;;;;;;3.67;2.40;;;;;;;1.79;90.94;98105.03;5032252;28;20046;-68
2021/01/22 06:31:44;;;;;;;2.58;2.10;;;;;;;1.79;91.00;98105.03;5033241;28;20124;-68
2021/01/22 06:34:10;;;;;;;2.58;2.00;;;;;;;1.79;90.88;98115.56;5032208;28;20167;-68
2021/01/22 06:36:37;;;;;;;;;;;;;;;1.78;90.80;98125.25;5032257;28;20049;-75
2021/01/22 06:39:03;;;;;;;5.68;2.67;;;;;;;1.76;90.68;98121.16;5031852;28;20418;-75
2021/01/22 06:41:29;;;;;;;;;;;;;;;1.78;90.73;98127.03;5033470;28;20451;-75
2021/01/22 06:43:58;;;;;;;5.15;2.60;;;;;;;1.78;90.59;98138.41;5032698;28;19927;-75
2021/01/22 06:46:26;;;;;;;15.80;3.60;;;;;;;1.85;90.80;98146.41;5031252;28;20049;-68
2021/01/22 06:49:00;;;;;;;7.50;2.78;;;;;;;1.86;90.83;98148.88;5031619;28;20043;-68
2021/01/22 06:51:30;;;;;;;6.75;2.80;;;;;;;1.81;90.75;98145.97;5032168;28;20041;-69
2021/01/22 06:54:21;;;;;;;7.50;2.60;;;;;;;1.85;91.06;98149.03;5032199;28;20052;-68
2021/01/22 06:56:46;;;;;;;6.60;2.92;;;;;;;1.87;90.85;98157.59;5032275;28;20071;-68
2021/01/22 06:59:21;;;;;;;8.40;3.70;;;;;;;1.88;90.93;98167.16;5032611;28;20123;-68
2021/01/22 07:01:48;;;;;;;10.27;3.90;;;;;;;1.92;90.74;98172.88;5032460;28;20057;-68
2021/01/22 07:04:29;;;;;;;10.15;5.13;;;;;;;1.90;90.88;98165.16;5032414;28;20431;-68
2021/01/22 07:06:55;;;;;;;13.38;5.07;;;;;;;1.94;90.64;98166.44;5014847;28;20041;-68
2021/01/22 07:09:21;;;;;;;9.70;4.45;;;;;;;2.00;90.57;98175.50;5031453;28;20076;-68
2021/01/22 07:11:52;;;;;;;10.45;5.03;;;;;;;2.02;90.59;98184.84;5032396;28;20072;-68
2021/01/22 07:14:34;;;;;;;15.88;6.05;;;;;;;2.03;90.69;98185.66;5031126;28;20403;-68
2021/01/22 07:17:04;;;;;;;11.30;5.95;;;;;;;2.03;90.70;98191.75;5029779;28;20041;-68
2021/01/22 07:19:30;;;;;;;10.55;4.65;;;;;;;2.03;90.53;98189.13;5028956;28;20534;-68
2021/01/22 07:21:56;;;;;;;9.93;4.38;;;;;;;2.09;90.63;98174.47;5031682;28;20033;-68
2021/01/22 07:24:21;;;;;;;10.50;4.90;;;;;;;2.03;90.64;98185.66;5030651;28;20030;-68
2021/01/22 07:26:49;;;;;;;9.80;5.23;;;;;;;2.02;90.78;98195.38;5012397;28;20451;-68
2021/01/22 07:29:27;;;;;;;10.32;5.18;;;;;;;2.06;90.67;98209.84;5012656;28;20940;-68
2021/01/22 07:31:56;;;;;;;14.38;4.63;;;;;;;2.14;90.33;98219.53;5031972;28;20434;-68
2021/01/22 07:34:45;;;;;;;10.05;4.72;;;;;;;2.16;90.29;98227.25;5031893;28;20048;-68
2021/01/22 07:37:22;;;;;;;11.80;4.57;;;;;;;2.15;90.01;98223.78;5030762;28;20041;-68
2021/01/22 07:39:50;;;;;;;8.60;4.03;;;;;;;2.22;89.79;98231.81;5030165;28;20116;-68
2021/01/22 07:42:20;;;;;;;8.68;4.95;;;;;;;2.21;89.80;98244.16;5031721;28;20107;-68
2021/01/22 07:44:53;;;;;;;6.82;4.13;;;;;;;2.22;89.81;98258.16;5030107;28;20442;-68
2021/01/22 07:47:27;;;;;;;9.30;4.40;;;;;;;2.26;89.25;98251.56;5030530;28;20025;-68
2021/01/22 07:49:58;;;;;;;8.32;4.32;;;;;;;2.27;89.22;98250.56;5031777;28;20037;-68
2021/01/22 07:52:23;;;;;;;10.20;4.55;;;;;;;2.29;89.46;98264.38;5031713;28;20037;-68
2021/01/22 07:54:49;;;;;;;9.15;4.60;;;;;;;2.29;89.38;98264.38;5030701;28;20827;-68
2021/01/22 07:57:25;;;;;;;;;;;;;;;2.28;89.35;98273.28;5031580;28;20069;-67
2021/01/22 07:59:52;;;;;;;11.98;4.38;;;;;;;2.32;89.46;98279.84;5030581;28;19920;-68
2021/01/22 08:02:22;;;;;;;11.45;5.90;;;;;;;2.33;88.98;98273.59;5031479;28;20455;-67
2021/01/22 08:05:03;;;;;;;15.27;6.07;;;;;;;2.33;88.76;98273.59;5030477;28;20112;-67
2021/01/22 08:07:50;;;;;;;14.18;6.20;;;;;;;2.39;88.34;98285.22;5031334;28;20781;-67
2021/01/22 08:10:15;;;;;;;13.13;5.35;;;;;;;2.44;88.37;98288.19;5030809;28;20130;-67
2021/01/22 08:13:00;;;;;;;16.33;4.90;;;;;;;2.44;88.05;98304.81;5031326;28;20099;-67
2021/01/22 08:15:27;;;;;;;11.85;5.57;;;;;;;2.45;88.08;98298.53;5030157;28;20451;-67
2021/01/22 08:17:54;;;;;;;10.85;5.18;;;;;;;2.43;88.00;98297.91;5030248;28;20481;-67
2021/01/22 08:20:21;;;;;;;11.40;4.65;;;;;;;2.47;87.10;98293.13;5030300;28;20052;-67
2021/01/22 08:22:54;;;;;;;10.57;4.47;;;;;;;2.50;87.49;98309.38;5031153;28;20025;-67
2021/01/22 08:25:36;;;;;;;8.48;3.83;;;;;;;2.50;87.34;98306.75;5030068;28;20047;-67
2021/01/22 08:28:05;;;;;;;10.43;4.18;;;;;;;2.49;87.63;98305.13;5030070;28;20068;-67
2021/01/22 08:30:30;;;;;;;9.10;3.80;;;;;;;2.47;87.24;98309.75;5031177;28;20099;-67
2021/01/22 08:32:57;;;;;;;8.20;4.93;;;;;;;2.53;86.74;98318.78;5031165;28;20041;-67
2021/01/22 08:35:24;;;;;;;13.48;4.65;;;;;;;2.50;86.83;98309.38;5030960;28;20076;-67
2021/01/22 08:37:51;;;;;;;12.40;5.53;;;;;;;2.53;85.84;98330.13;5030944;28;20119;-67
2021/01/22 08:40:17;;;;;;;7.35;3.72;;;;;;;2.50;86.01;98330.47;5030032;28;20040;-67
2021/01/22 08:42:58;;;;;;;9.23;4.45;;;;;;;2.56;85.24;98334.25;5031063;28;20042;-67
2021/01/22 08:45:23;;;;;;;9.13;4.20;;;;;;;2.51;85.93;98340.03;5031098;28;20113;-68
2021/01/22 08:47:49;;;;;;;14.43;3.88;;;;;;;2.51;86.18;98337.38;5030756;28;20037;-68
2021/01/22 08:50:18;;;;;;;15.23;4.83;;;;;;;2.50;85.79;98334.91;5030355;28;20730;-68
2021/01/22 08:52:44;;;;;;;7.63;3.88;;;;;;;2.49;85.70;98339.38;5033306;28;20077;-68
2021/01/22 08:55:19;;;;;;;12.52;4.25;;;;;;;2.52;85.56;98349.56;5033315;28;20432;-68
2021/01/22 08:58:02;;;;;;;13.40;4.40;;;;;;;2.50;85.46;98348.06;5032971;28;20033;-68
2021/01/22 09:00:27;;;;;;;8.15;3.83;;;;;;;2.50;85.64;98348.91;5032199;28;20414;-68
2021/01/22 09:02:53;;;;;;;19.40;5.05;;;;;;;2.48;85.22;98358.81;5015877;28;20032;-68
2021/01/22 09:05:18;;;;;;;8.67;4.10;;;;;;;2.49;85.26;98370.97;5032772;28;20041;-68
2021/01/22 09:07:44;;;;;;;11.25;4.35;;;;;;;2.52;85.32;98365.34;5033659;28;20037;-68
2021/01/22 09:10:29;;;;;;;8.35;4.03;;;;;;;2.58;84.57;98390.22;5033707;28;20099;-68
2021/01/22 09:13:07;;;;;;;7.47;3.50;;;;;;;2.60;84.51;98382.13;5034553;28;20046;-68
2021/01/22 09:15:32;;;;;;;10.70;4.28;;;;;;;2.59;84.95;98396.31;5034587;28;20053;-68
2021/01/22 09:17:57;;;;;;;13.93;5.53;;;;;;;2.58;85.25;98394.66;5033585;28;20140;-68
2021/01/22 09:20:24;;;;;;;8.67;4.57;;;;;;;2.57;85.82;98393.00;5017128;28;20045;-68
2021/01/22 09:23:04;;;;;;;21.20;5.57;;;;;;;2.60;84.82;98392.66;5033538;28;20091;-68
2021/01/22 09:25:30;;;;;;;17.45;5.30;;;;;;;2.66;85.00;98376.19;5033266;28;20052;-68
2021/01/22 09:27:55;;;;;;;16.08;4.55;;;;;;;2.96;84.22;98396.50;5033343;28;20042;-68
2021/01/22 09:30:27;;;;;;;9.73;4.30;;;;;;;3.42;82.23;98395.78;5033513;28;20411;-69
2021/01/22 09:32:54;;;;;;;12.82;5.00;;;;;;;3.02;82.88;98400.28;5034343;28;20196;-69
2021/01/22 09:35:21;;;;;;;6.45;4.03;;;;;;;2.87;83.31;98405.44;5034273;28;20045;-69
2021/01/22 09:37:46;;;;;;;11.48;4.00;;;;;;;2.90;83.62;98410.38;5032931;28;20128;-69
2021/01/22 09:40:12;;;;;;;11.13;4.18;;;;;;;2.91;83.86;98412.00;5033105;28;20141;-69
2021/01/22 09:42:38;;;;;;;11.65;5.13;;;;;;;2.96;83.34;98416.78;5034088;28;20038;-69
2021/01/22 09:45:06;;;;;;;13.00;4.65;;;;;;;3.04;82.64;98421.19;5033035;28;20037;-68
2021/01/22 09:47:31;;;;;;;10.00;4.95;;;;;;;3.01;83.35;98424.16;5032578;28;20037;-68
2021/01/22 09:49:56;;;;;;;10.37;4.57;;;;;;;3.00;83.57;98439.16;5033966;28;20493;-69
2021/01/22 09:52:22;;;;;;;12.63;4.17;;;;;;;3.00;83.21;98433.91;5016396;28;20049;-68
2021/01/22 09:54:48;;;;;;;8.77;5.28;;;;;;;2.95;83.71;98442.31;5033042;28;20478;-69
2021/01/22 09:57:13;;;;;;;11.95;6.03;;;;;;;3.01;84.30;98447.88;5032408;28;20091;-68
2021/01/22 09:59:39;;;;;;;8.77;4.37;;;;;;;2.99;83.65;98447.25;5032749;28;20490;-69
2021/01/22 10:02:04;;;;;;;11.83;5.10;;;;;;;3.20;85.63;98452.75;5032758;28;20520;-69
2021/01/22 10:04:29;;;;;;;12.93;5.10;;;;;;;3.25;81.89;98445.13;5016199;28;20452;-68
2021/01/22 10:06:55;;;;;;;8.07;5.47;;;;;;;3.26;81.81;98454.72;5033394;28;20029;-69
2021/01/22 10:09:20;;;;;;;13.33;6.03;;;;;;;3.26;82.52;98452.06;5015888;28;20448;-68
2021/01/22 10:11:46;;;;;;;19.08;5.18;;;;;;;3.21;82.22;98458.84;5032250;28;20487;-68
2021/01/22 10:14:11;;;;;;;17.40;5.57;;;;;;;3.34;83.08;98457.31;5032624;28;20037;-69
2021/01/22 10:16:37;;;;;;;14.65;4.57;;;;;;;3.60;81.30;98453.53;5033311;28;20041;-68
2021/01/22 10:19:02;;;;;;;19.83;6.53;;;;;;;3.43;81.85;98457.28;5033407;28;20433;-68
2021/01/22 10:21:28;;;;;;;10.93;4.43;;;;;;;3.31;81.71;98470.03;5033389;28;20052;-68
2021/01/22 10:23:54;;;;;;;12.67;4.90;;;;;;;3.34;81.38;98467.84;5033120;28;20465;-68
2021/01/22 10:26:21;;;;;;;13.88;5.50;;;;;;;3.42;81.80;98458.25;5032084;28;20048;-68
2021/01/22 10:28:47;;;;;;;8.55;5.35;;;;;;;3.47;81.40;98437.47;5032350;28;20084;-68
2021/01/22 10:31:12;;;;;;;15.23;5.55;;;;;;;3.47;80.90;98462.03;5033198;28;20107;-68
2021/01/22 10:33:38;;;;;;;17.27;5.13;;;;;;;3.52;80.82;98472.88;5015656;28;20061;-68
2021/01/22 10:36:05;;;;;;;12.82;5.43;;;;;;;3.60;80.65;98464.09;5031972;28;20714;-68
2021/01/22 10:38:30;;;;;;;14.05;5.10;;;;;;;3.85;79.02;98482.44;5032829;28;20151;-68
2021/01/22 10:40:56;;;;;;;9.13;5.07;;;;;;;3.86;78.85;98482.25;5032038;28;20053;-69
2021/01/22 10:43:22;;;;;;;9.93;5.32;;;;;;;3.72;78.71;98488.28;5032821;28;20131;-68
2021/01/22 10:45:49;;;;;;;22.17;6.68;;;;;;;3.93;77.34;98475.31;5032618;28;20091;-68
2021/01/22 10:48:15;;;;;;;;;;;;;;;4.13;77.21;98499.41;5015816;28;20041;-68
2021/01/22 10:50:40;;;;;;;;;;;;;;;3.93;77.18;98491.13;5033165;28;20261;-68
2021/01/22 10:53:05;;;;;;;12.70;5.23;;;;;;;4.00;77.05;98492.09;5031826;28;20059;-68
2021/01/22 10:55:30;;;;;;;19.27;6.07;;;;;;;3.94;77.64;98498.06;5031719;28;20103;-68
2021/01/22 10:57:56;;;;;;;10.93;5.87;;;;;;;3.73;77.60;98496.03;5032571;28;20044;-68
2021/01/22 11:00:21;;;;;;;12.13;5.33;;;;;;;3.95;78.68;98517.34;5032668;28;20129;-69
2021/01/22 11:02:47;;;;;;;18.03;5.93;;;;;;;3.89;78.19;98502.22;5032711;28;20033;-68
2021/01/22 11:05:13;;;;;;;13.33;5.00;;;;;;;3.98;77.87;98504.63;5032450;28;20295;-68
2021/01/22 11:07:38;;;;;;;13.77;5.35;;;;;;;4.00;78.43;98507.06;5031288;28;20451;-68
2021/01/22 11:10:04;;;;;;;14.63;5.40;;;;;;;3.84;78.18;98518.59;5031490;28;20076;-69
2021/01/22 11:12:30;;;;;;;10.70;4.47;;;;;;;3.82;78.09;98515.28;5031175;28;20048;-69
2021/01/22 11:14:55;;;;;;;12.93;5.40;;;;;;;3.81;78.55;98517.09;5032424;28;20112;-68
2021/01/22 11:17:20;;;;;;;15.57;5.80;;;;;;;3.89;78.28;98510.97;5031092;28;20041;-68
2021/01/22 11:19:46;;;;;;;14.67;5.47;;;;;;;3.97;78.13;98518.81;5031354;28;20048;-68
2021/01/22 11:22:12;;;;;;;15.00;6.10;;;;;;;3.86;77.50;98503.38;5031072;28;20045;-68
2021/01/22 11:24:37;;;;;;;14.98;6.00;;;;;;;3.88;77.91;98513.75;5031287;28;20025;-68
2021/01/22 11:27:03;;;;;;;18.70;6.23;;;;;;;3.99;78.33;98518.66;5030839;28;20048;-68
2021/01/22 11:29:28;;;;;;;15.67;6.27;;;;;;;3.93;77.90;98527.25;5031209;28;20026;-68
2021/01/22 11:31:54;;;;;;;15.47;6.80;;;;;;;3.86;77.87;98536.88;5031069;28;20323;-68
2021/01/22 11:34:19;;;;;;;11.07;5.10;;;;;;;3.90;77.81;98522.34;5014541;28;20033;-68
2021/01/22 11:36:44;;;;;;;13.33;6.17;;;;;;;3.98;78.04;98520.47;5031528;28;20041;-68
2021/01/22 11:39:09;;;;;;;15.43;5.97;;;;;;;4.11;77.71;98527.81;5031989;28;20034;-68
2021/01/22 11:41:35;;;;;;;13.33;6.27;;;;;;;3.99;76.89;98531.84;5014322;28;20048;-68
2021/01/22 11:44:01;;;;;;;21.17;8.43;;;;;;;3.93;77.59;98527.25;5031887;28;20033;-68
2021/01/22 11:46:26;;;;;;;16.00;6.47;;;;;;;4.04;76.98;98532.16;5031465;28;20037;-68